Quick Links (Output Below):   Max & Min Temps   /   Climate Reports   /   Zone Forecasts
River Forecasts   /   Forestry Forecasts   /   Aviation Forecasts   /   Radars   /   Features

Terminal Aerodrome Forecast (Pine Bluff)

Pick a Site:
Arkadelphia | El Dorado | Fayetteville | Fort Smith | Harrison | Highfill | Hot Springs | Jonesboro
Little Rock | Monticello | Mountain Home | Pine Bluff | Texarkana
 Forecast 

KPBF 290535Z 2906/3006 VRB03KT P6SM BKN250
     FM291100 VRB03KT 4SM BR SCT250
     FM291800 19004KT P6SM BKN100=


 Latest METARs (Observations) 
How to Decode METARs
06Z KPBF 290553Z AUTO 00000KT 10SM CLR 19/17 A3002 RMK AO2 SLP163
         T01940172 10261 20189 403000139 58000 $
         
05Z KPBF 290453Z AUTO 00000KT 10SM CLR 19/18 A3002 RMK AO2 SLP165
         T01890178 $
         
04Z KPBF 290353Z AUTO 00000KT 10SM CLR 19/17 A3003 RMK AO2 SLP168
         T01890172 $
         
03Z KPBF 290253Z AUTO 00000KT 10SM CLR 19/17 A3002 RMK AO2 SLP164
         T01940172 53014 $
         
02Z KPBF 290153Z AUTO 00000KT 10SM CLR 22/17 A3000 RMK AO2 SLP158
         T02170172 $
         
01Z KPBF 290053Z AUTO 07003KT 10SM CLR 24/17 A2998 RMK AO2 SLP152
         T02440167 $
         
00Z KPBF 282353Z AUTO 06004KT 10SM CLR 26/18 A2998 RMK AO2 SLP150
         T02610183 10300 20261 58007 $
         
***** Today's Observations (Above) *****


23Z KPBF 282253Z AUTO 08004KT 10SM CLR 28/18 A2999 RMK AO2 SLP152
         T02830183 $
         
22Z KPBF 282153Z AUTO 08004KT 10SM CLR 29/16 A3000 RMK AO2 SLP156
         T02940161 $
         
21Z KPBF 282053Z AUTO 22003KT 10SM CLR 29/15 A3000 RMK AO2 SLP157
         T02890150 56023 $
         
***** Yesterday's Observations (Above) *****


Back to Main Page
http://www.srh.noaa.gov/lzk/qfcst.php

USA.gov is the U.S. government's official web portal to all federal, state and local government web resources and services.